Sunrise, Florida
Current Conditions -  °F | °C
As of 11:23 AM on Saturday 22 Nov 2014 (Local Time) from KFXE Reporting Station
Light Rain Light Rain  
Wind Chill: 76°   Ceiling: 2600
Heat Index: 76°   Visibility: 10mi
Dew Point: 69°   Wind: 18mph
Humidity: 79%   Direction: 90°E
Pressure: 30.18"   Gusts: 28mph
Location:  26.15°N, 80.33°W
Report Text: KFXE 221623Z 09016G24KT 10SM -RA BKN026 BKN031 OVC038 24/21 A3018 RMK AO2 PK WND 09026/1605 RAB04 P0000 T02440206
Loading
Personal Weather Stations






























Interactive Weather Map New forecast layout! Learn more

10-Day Weather Forecast

Advertisements
Track Severe Weather on mobile